Terminal Aerodrome Forecast
Issued by NWS

Home | Current Version | Previous Version | Text Only | Print | Product List | Glossary On
Versions: 1 2 3 4 5 6 7 8 9 10 11 12 13 14 15 16 17 18 19 20 21
000
FTUS45 KCYS 261120
TAFRWL
TAF
KRWL 261120Z 2612/2712 25016KT P6SM SKC
     FM261700 24022G34KT P6SM FEW200
     FM270100 24012KT P6SM SCT250=

USA.gov is the U.S. government's official web portal to all federal, state and local government web resources and services.